2013 Larry Noel 15K Race & 3K Fun Run

Larry Noel Logo

Greenbelt, MD

It was another warm and humid summer evening. Claire Hallissey was breathing Doug Kuderna's dust all the way to the finish, as our first-place male finisher was just seconds ahead of our first-place female.

Race Directors Ben Richter and Sharone Cheskis would like to thank the many volunteers whose work made this race possible: Raj Bhanot, Rob "Bowie" Bowie, Sydney Bowie, Mike Cannon, Brian Danza, Elizabeth Eby, Sherm Edwards, Beth Fahey, Tami Graf, Ken Krehbiel, Jim Noone, Bob Platt, Robert Rodriguez, Gillian Rowan, Melinda Salzman, David Webber and Cynthia Wallace. The DC Road Runners Club also thanks Kevin Craven and the Laurel Amateur Radio Club, who have provided on-course emergency communications support at the Larry Noel 15K Race and the George Washington Birthday Marathon for many years.  Finally, we thank Dean Silkstone and Georgetown Running Company for providing finishers' gift certificates; and Joe McNeal and Kayode Lewis of the Greenbelt Recreation Department for making the Youth Center available to us.

For changes and corrections to 15K results please email Brian; to 3K results please email Ben.

 

15K Results

P First Last G Age City St Net Time Gun Time G-Rank A - Rank
-- ----- ---- - --- --- -- ---- ---- ---- ----
1 Doug Kuderna M 52 Odenton MD 0:57:16 0:57:16 1 1
2 Claire Hallissey F 30 Arlington VA 0:57:29 0:57:29 1 1
3 Jeffrey Hiott M 39 Wahington DC 1:02:31 1:02:31 2 1
4 Yukun Fung M 34 Silver Spring MD 1:03:01 1:03:01 3 2
5 Maksym Petrenko M 30 Lanham MD 1:03:19 1:03:20 4 3
6 Stephanie Fulmer F 23 Arlington VA 1:05:28 1:05:28 2 1
7 Christopher Britz M 30 Sterling VA 1:05:58 1:05:59 5 4
8 Jacob Englander M 29 Greenbelt MD 1:06:23 1:06:23 6 1
9 Christopher Suarez M 29 Washington DC 1:07:52 1:07:52 7 2
10 John Way M 48 Montgomery Village MD 1:08:55 1:08:55 8 1
11 Dren Sopa M 29 New York NY 1:09:14 1:09:15 9 3
12 Tim Morgan M 62 Damascus MD 1:09:16 1:09:17 10 1
13 James Cooper M 43 Annapolis MD 1:09:58 1:09:58 11 2
14 Richard Morgan M 61 Silver Spring MD 1:11:54 1:11:54 12 2
15 Jay Jacob Wind M 63 Arlington VA 1:13:32 1:13:32 13 3
16 John Macmillan M 41 Columbia MD 1:13:44 1:13:46 14 3
17 Mike Cannon M 55 Fairfax Station VA 1:14:01 1:14:02 15 2
18 Bill Stahr M 52 The Plains VA 1:14:35 1:14:37 16 3
19 Ronnie Wong M 66 Baltimore MD 1:15:17 1:15:18 17 4
20 Chris Papp M 19 Greenbelt MD 1:15:20 1:15:23 18 1
21 Lloyd Rawley M 52 Greenbelt MD 1:18:03 1:18:05 19 4
22 David Webster M 60 Stevensville MD 1:18:31 1:18:31 20 5
23 Andrew Goldsmith M 49 Takoma Park MD 1:18:35 1:18:39 21 4
24 Karen Young F 45 Beltsville MD 1:19:43 1:19:45 3 1
25 Tom Winkert M 49 Potomac MD 1:20:21 1:20:21 22 5
26 Samuel Hendrix M 43 Washington DC 1:23:08 1:23:11 23 6
27 Gregory Chaconas M 67 Washington DC 1:24:43 1:24:44 24 6
28 Eric Johnston M 49 Ellicott City MD 1:24:53 1:24:55 25 7
29 Ken Schoppmann M 48 Washington DC 1:25:09 1:25:13 26 8
30 Kaori Flores F 29 Alexandria VI 1:27:24 1:27:28 4 2
31 Alma Knutson F 16 Berwyn Heights MD 1:27:48 1:27:51 5 1
32 Chris Farmer M 34 -- -- 1:27:56 1:27:58 27 5
33 Kevin Zerrusen M 52 Mclean VA 1:28:19 1:28:20 28 5
34 Lou Shapiro M 71 Silver Spring MD 1:28:34 1:28:35 29 1
35 Kirk Gordon M 57 Glenn Dale MD 1:30:17 1:30:21 30 6
36 Billy Noel M 58 Mt. Airy VA 1:30:53 1:30:54 31 7
37 James Moreland M 61 Gaithersburg MD 1:31:14 1:31:14 32 7
38 Rick Smith M 59 Baltimore MD 1:31:34 1:31:35 33 8
39 Bryan Roslund M 48 Potomac MD 1:33:23 1:33:28 34 9
40 Cindy Cohen F 45 Washington DC 1:33:35 1:33:39 6 2
41 James Scarborough M 55 Mclean VA 1:35:51 1:35:52 35 9
42 John Arszulowicz M 34 Alexandria VA 1:37:17 1:37:21 36 6
43 Christine Merenda F 44 Columbia MD 1:38:39 1:38:41 7 3
44 Eliza Herman F 33 Darlington MD 1:39:16 1:39:20 8 2
45 Karen Harvey F 56 Ellicott City MD 1:41:22 1:41:25 9 1
46 Harrell Chris M 52 Germantown MD 1:41:57 1:42:00 37 10
47 Clara Beckert F 16 Greenbelt MD 1:42:16 1:42:19 10 2
48 Sanxiong Xiong M 54 Fairfax VA 1:42:48 1:42:53 38 11
49 Paul Mcbean M 36 Fort Washington MD 1:44:04 1:44:08 39 7
50 Genevieve Ahearn F 16 Riverdale MD 1:44:04 1:44:09 11 3
51 Mairead Alexander F 16 Greenbelt MD 1:44:05 1:44:09 12 4
52 Jeanne Larrison F 58 Chesapeake Beach MD 1:44:56 1:44:58 13 2
53 Mel Quecan M 74 Columbia MD 1:45:54 1:45:55 40 2
54 Jennifer Auer F 35 Hyattsville MD 1:46:52 1:46:59 14 3
55 Sharon Clark F 47 Frederick MD 1:47:35 1:47:39 15 4
56 Andrew Hanks M 46 Odenton MD 1:47:35 1:47:40 41 10
57 Kate Green F 34 -- -- 1:51:42 1:51:46 16 4
58 Kathy Hennes F 61 Annapolis MD 1:52:30 1:52:36 17 1
59 Traviss Wood M 32 Aberdeen Proving Ground MD 1:53:14 1:53:17 42 8
60 April Harrison F 38 Hanover MD 1:54:46 1:54:53 18 5
61 Samora Casimir F 34 Laurel MD 1:59:39 1:59:46 19 6
62 Maryann Carroll F 28 Germantown MD 1:56:08 2:00:49 20 3
63 Melinda Krummerich F 54 Elkridge MD 2:03:07 2:03:13 21 3
64 Donna Norman F 46 Arlington VA 2:04:23 2:04:30 22 5
65 Anne Guglik F 40 Greenbelt MD 2:04:33 2:04:36 23 6
66 Amadea Noriega De Watson F 30 -- -- 2:04:54 2:04:54 24 7
67 Tami Graf F 77 Lusby MD 2:07:43 2:07:46 25 1
68 Deborah Carroll F 42 Riverdale MD 2:08:03 2:08:06 26 7
69 Karen Geiser F 45 Annapolis MD 2:08:04 2:08:06 27 8
70 Christina Caravoulias F 58 -- -- 2:43:35 2:43:41 28 4

 

3K Results

P First Last G Age City St Time G-Rank A-Rank
-- ---- ---- - --- ---- -- ---- ---- ----
1 Tyler Wilson M 13 Silver Spring MD 11:40 1 1
2 Alyssa Heintzelman F 12 New Carrollton MD 15:16 1 1
3 Ian Parsons M 8 College Park MD 15:17 2 1
4 Chris Quick M 12 Phoenix AZ 15:18 3 2
5 Jeremy Quick M 9 Phoenix AZ 16:43 4 2
6 Martin Greenbaum M 68 Solomons MD 17:58 5 1
7 Robert Weiner M 66 Accokeek MD 21:14 6 2
8 Shamika Johnson F 28 Temple Hills MD 26:18 2 1
9 Cathy Jones F 40 Greenbelt MD 26:44 3 1
10 Ginny Jones F 68 Greenbelt MD 27:06 4 1
11 Vania McBean F 38 Fort Washington MD 42:38 5 1
12 Lenora Algaze F 69 Greenbelt MD 45:24 6 2
 

Upcoming Events

DCRRC JFK 20K and MLK 5K
Sat, Jan 26th, 2019, @9:00am
DCRRC Langley 8K
Sat, Feb 9th, 2019, @10:00am
DCRRC George Washington's Birthday Marathon and Relay
Sun, Feb 17th, 2019, @10:00am
February Happy Hour
Thu, Feb 21st, 2019, @6:30pm
Club Challenge 10M Race
Sun, Feb 24th, 2019, @8:00am
DCRRC Burke Lake 12K
Sun, Mar 3rd, 2019, @10:00am
 DCRRlogotypeRRCA member

The DC Road Runners Club is a member of the Road Runners Club of America and is also affiliated with USA Track & Field. We provide a year-round schedule of running events that offer everyone a chance to participate regardless of age, gender, or athletic ability.